createdAt,value
2018-04-19T00:00:09.585Z,13.70
2018-04-19T00:02:35.989Z,13.70
2018-04-19T00:05:02.248Z,13.60
2018-04-19T00:07:28.540Z,13.60
2018-04-19T00:09:54.779Z,13.60
2018-04-19T00:12:21.110Z,13.50
2018-04-19T00:14:47.357Z,13.50
2018-04-19T00:17:13.627Z,13.50
2018-04-19T00:19:40.226Z,13.50
2018-04-19T00:22:06.559Z,13.40
2018-04-19T00:24:32.960Z,13.40
2018-04-19T00:26:59.294Z,13.40
2018-04-19T00:29:25.586Z,13.30
2018-04-19T00:31:51.940Z,13.40
2018-04-19T00:34:18.231Z,13.30
2018-04-19T00:36:44.495Z,13.30
2018-04-19T00:39:11.595Z,13.20
2018-04-19T00:41:37.807Z,13.20
2018-04-19T00:44:04.096Z,13.20
2018-04-19T00:46:30.440Z,13.10
2018-04-19T00:48:56.743Z,13.10
2018-04-19T00:51:23.389Z,13.00
2018-04-19T00:53:49.850Z,13.00
2018-04-19T00:56:16.289Z,13.00
2018-04-19T00:58:42.952Z,13.00
2018-04-19T01:01:09.723Z,12.90
2018-04-19T01:03:36.059Z,12.90
2018-04-19T01:06:02.333Z,12.90
2018-04-19T01:08:28.729Z,12.90
2018-04-19T01:10:55.011Z,12.90
2018-04-19T01:13:21.295Z,12.90
2018-04-19T01:15:48.288Z,12.90
2018-04-19T01:18:14.507Z,12.90
2018-04-19T01:20:40.842Z,12.90
2018-04-19T01:23:07.171Z,12.90
2018-04-19T01:25:33.416Z,12.90
2018-04-19T01:27:59.613Z,12.90
2018-04-19T01:30:26.194Z,12.90
2018-04-19T01:32:53.160Z,12.90
2018-04-19T01:35:19.546Z,12.90
2018-04-19T01:37:46.236Z,12.80
2018-04-19T01:40:12.564Z,12.80
2018-04-19T01:42:38.926Z,12.80
2018-04-19T01:45:07.690Z,12.80
2018-04-19T01:47:33.960Z,12.80
2018-04-19T01:50:00.341Z,12.80
2018-04-19T01:52:26.647Z,12.80
2018-04-19T01:54:52.973Z,12.80
2018-04-19T01:57:19.366Z,12.80
2018-04-19T01:59:46.299Z,12.80
2018-04-19T02:02:12.572Z,12.70
2018-04-19T02:04:38.809Z,12.80
2018-04-19T02:07:06.329Z,12.80
2018-04-19T02:09:32.513Z,12.80
2018-04-19T02:11:58.788Z,12.80
2018-04-19T02:14:25.171Z,12.90
2018-04-19T02:16:51.426Z,12.90
2018-04-19T02:19:17.829Z,12.90
2018-04-19T02:21:44.037Z,12.90
2018-04-19T02:24:11.197Z,12.90
2018-04-19T02:26:37.555Z,12.90
2018-04-19T02:29:03.881Z,12.90
2018-04-19T02:31:30.855Z,12.90
2018-04-19T02:33:57.131Z,12.90
2018-04-19T02:36:23.426Z,12.90
2018-04-19T02:38:50.444Z,12.90
2018-04-19T02:41:17.012Z,12.90
2018-04-19T02:43:44.006Z,12.90
2018-04-19T02:46:11.047Z,12.90
2018-04-19T02:48:37.424Z,12.80
2018-04-19T02:51:03.664Z,12.90
2018-04-19T02:53:30.034Z,12.90
2018-04-19T02:55:56.453Z,12.90
2018-04-19T02:58:23.133Z,12.80
2018-04-19T03:00:49.472Z,12.80
2018-04-19T03:03:17.677Z,12.80
2018-04-19T03:05:44.347Z,12.70
2018-04-19T03:08:12.209Z,12.70
2018-04-19T03:10:38.547Z,12.60
2018-04-19T03:13:04.941Z,12.60
2018-04-19T03:15:31.206Z,12.60
2018-04-19T03:17:57.454Z,12.50
2018-04-19T03:20:23.821Z,12.50
2018-04-19T03:22:50.036Z,12.50
2018-04-19T03:25:16.291Z,12.40
2018-04-19T03:27:42.906Z,12.40
2018-04-19T03:30:09.999Z,12.30
2018-04-19T03:32:38.388Z,12.30
2018-04-19T03:35:04.666Z,12.30
2018-04-19T03:37:30.931Z,12.20
2018-04-19T03:39:58.108Z,12.20
2018-04-19T03:42:25.448Z,12.10
2018-04-19T03:44:51.791Z,12.10
2018-04-19T03:47:22.359Z,12.00
2018-04-19T03:49:48.652Z,12.00
2018-04-19T03:52:14.928Z,12.00
2018-04-19T03:54:41.204Z,11.90
2018-04-19T03:57:07.503Z,11.90
2018-04-19T03:59:33.792Z,11.80
2018-04-19T04:02:00.044Z,11.80
2018-04-19T04:04:26.336Z,11.80
2018-04-19T04:06:52.685Z,11.80
2018-04-19T04:09:20.072Z,11.70
2018-04-19T04:11:46.388Z,11.70
2018-04-19T04:14:12.702Z,11.50
2018-04-19T04:16:51.256Z,11.50
2018-04-19T04:19:29.880Z,11.50
2018-04-19T04:22:08.524Z,11.40
2018-04-19T04:24:34.977Z,11.40
2018-04-19T04:27:02.019Z,11.50
2018-04-19T04:29:28.424Z,11.50
2018-04-19T04:31:54.716Z,11.50
2018-04-19T04:34:21.647Z,11.50
2018-04-19T04:36:48.852Z,11.50
2018-04-19T04:39:15.068Z,11.50
2018-04-19T04:41:41.335Z,11.40
2018-04-19T04:44:07.630Z,11.50
2018-04-19T04:46:33.866Z,11.50
2018-04-19T04:49:00.839Z,11.50
2018-04-19T04:51:28.151Z,11.50
2018-04-19T04:53:54.471Z,11.60
2018-04-19T04:56:21.524Z,11.70
2018-04-19T04:58:47.724Z,11.60
2018-04-19T05:01:14.051Z,11.70
2018-04-19T05:03:49.120Z,11.70
2018-04-19T05:06:15.565Z,11.80
2018-04-19T05:08:41.812Z,11.90
2018-04-19T05:11:08.795Z,12.00
2018-04-19T05:13:35.114Z,12.00
2018-04-19T05:16:01.377Z,12.00
2018-04-19T05:18:27.643Z,12.10
2018-04-19T05:20:53.936Z,12.20
2018-04-19T05:23:20.198Z,12.20
2018-04-19T05:25:46.427Z,12.30
2018-04-19T05:28:12.845Z,12.30
2018-04-19T05:30:39.315Z,12.40
2018-04-19T05:33:05.576Z,12.50
2018-04-19T05:35:46.508Z,12.50
2018-04-19T05:38:13.565Z,12.70
2018-04-19T05:40:41.834Z,12.70
2018-04-19T05:43:09.126Z,12.80
2018-04-19T05:45:46.389Z,12.90
2018-04-19T05:48:12.653Z,12.90
2018-04-19T05:50:39.022Z,13.10
2018-04-19T05:53:05.470Z,13.10
2018-04-19T05:55:35.035Z,13.20
2018-04-19T05:58:01.354Z,13.30
2018-04-19T06:00:27.608Z,13.40
2018-04-19T06:02:53.848Z,13.50
2018-04-19T06:05:20.171Z,13.60
2018-04-19T06:07:46.820Z,13.70
2018-04-19T06:10:13.035Z,13.80
2018-04-19T06:12:39.310Z,13.90
2018-04-19T06:15:07.575Z,14.00
2018-04-19T06:17:41.231Z,14.30
2018-04-19T06:20:07.590Z,14.20
2018-04-19T06:22:33.824Z,14.40
2018-04-19T06:25:00.792Z,14.40
2018-04-19T06:27:27.091Z,14.60
2018-04-19T06:29:57.500Z,14.70
2018-04-19T06:32:24.728Z,14.80
2018-04-19T06:34:51.153Z,14.90
2018-04-19T06:37:17.443Z,15.00
2018-04-19T06:39:46.277Z,15.20
2018-04-19T06:42:12.540Z,15.30
2018-04-19T06:44:38.980Z,15.40
2018-04-19T06:47:05.413Z,15.50
2018-04-19T06:49:31.722Z,15.50
2018-04-19T06:51:58.063Z,15.60
2018-04-19T06:54:24.286Z,15.70
2018-04-19T06:56:50.583Z,15.80
2018-04-19T06:59:17.573Z,16.00
2018-04-19T07:01:43.841Z,16.00
2018-04-19T07:04:10.108Z,16.20
2018-04-19T07:06:36.518Z,16.30
2018-04-19T07:09:02.998Z,16.30
2018-04-19T07:11:29.206Z,16.40
2018-04-19T07:13:55.459Z,16.50
2018-04-19T07:16:21.878Z,16.70
2018-04-19T07:18:48.276Z,16.80
2018-04-19T07:21:15.323Z,16.90
2018-04-19T07:23:42.035Z,16.90
2018-04-19T07:26:08.295Z,17.10
2018-04-19T07:28:35.202Z,17.10
2018-04-19T07:31:01.608Z,17.20
2018-04-19T07:33:27.922Z,17.30
2018-04-19T07:35:54.174Z,17.40
2018-04-19T07:38:20.404Z,17.50
2018-04-19T07:40:46.706Z,17.60
2018-04-19T07:43:13.646Z,17.80
2018-04-19T07:45:39.880Z,17.80
2018-04-19T07:48:06.129Z,17.90
2018-04-19T07:50:32.384Z,18.00
2018-04-19T07:52:58.670Z,18.10
2018-04-19T07:55:24.919Z,18.10
2018-04-19T07:57:51.299Z,18.20
2018-04-19T08:00:17.540Z,18.30
2018-04-19T08:02:43.839Z,18.40
2018-04-19T08:05:10.108Z,18.50
2018-04-19T08:07:36.480Z,18.60
2018-04-19T08:10:04.760Z,18.80
2018-04-19T08:12:31.012Z,18.70
2018-04-19T08:14:57.287Z,18.90
2018-04-19T08:17:24.431Z,18.90
2018-04-19T08:19:51.590Z,19.00
2018-04-19T08:22:18.689Z,19.20
2018-04-19T08:24:44.986Z,19.20
2018-04-19T08:27:11.294Z,19.30
2018-04-19T08:29:37.929Z,19.40
2018-04-19T08:32:06.644Z,19.50
2018-04-19T08:34:32.905Z,19.60
2018-04-19T08:36:59.297Z,19.70
2018-04-19T08:39:25.813Z,19.80
2018-04-19T08:41:52.767Z,19.90
2018-04-19T08:44:18.978Z,19.90
2018-04-19T08:46:45.519Z,20.00
2018-04-19T08:49:11.729Z,20.20
2018-04-19T08:51:39.316Z,20.30
2018-04-19T08:54:05.536Z,20.30
2018-04-19T08:56:32.730Z,20.50
2018-04-19T08:58:58.950Z,20.50
2018-04-19T09:01:25.147Z,20.50
2018-04-19T09:03:51.373Z,20.70
2018-04-19T09:06:17.611Z,20.70
2018-04-19T09:08:43.940Z,20.90
2018-04-19T09:11:10.202Z,21.00
2018-04-19T09:13:36.454Z,21.10
2018-04-19T09:16:02.719Z,21.20
2018-04-19T09:18:29.791Z,21.40
2018-04-19T09:20:56.028Z,21.30
2018-04-19T09:23:22.986Z,21.50
2018-04-19T09:25:50.007Z,21.70
2018-04-19T09:28:16.380Z,21.60
2018-04-19T09:30:42.719Z,21.70
2018-04-19T09:33:08.980Z,21.80
2018-04-19T09:35:35.213Z,21.90
2018-04-19T09:38:02.367Z,22.00
2018-04-19T09:40:28.885Z,22.00
2018-04-19T09:42:55.104Z,22.10
2018-04-19T09:45:22.340Z,22.20
2018-04-19T09:47:48.757Z,22.30
2018-04-19T09:50:14.982Z,22.30
2018-04-19T09:52:41.173Z,22.40
2018-04-19T09:55:08.439Z,22.60
2018-04-19T09:57:35.137Z,22.60
2018-04-19T10:00:01.370Z,22.60
2018-04-19T10:02:28.821Z,22.70
2018-04-19T10:05:00.986Z,22.80
2018-04-19T10:07:27.307Z,22.90
2018-04-19T10:09:54.299Z,23.20
2018-04-19T10:12:21.772Z,23.20
2018-04-19T10:14:49.493Z,23.30
2018-04-19T10:17:16.442Z,23.40
2018-04-19T10:19:43.529Z,23.60
2018-04-19T10:22:10.549Z,24.00
2018-04-19T10:24:36.936Z,24.00
2018-04-19T10:27:03.299Z,24.10
2018-04-19T10:29:29.763Z,24.20
2018-04-19T10:31:55.986Z,24.30
2018-04-19T10:34:22.267Z,24.50
2018-04-19T10:36:48.804Z,24.70
2018-04-19T10:39:15.057Z,24.70
2018-04-19T10:41:41.356Z,24.80
2018-04-19T10:44:07.636Z,24.90
2018-04-19T10:46:33.920Z,25.00
2018-04-19T10:49:00.237Z,25.20
2018-04-19T10:51:26.458Z,25.30
2018-04-19T10:53:52.830Z,25.40
2018-04-19T10:56:19.896Z,25.70
2018-04-19T10:58:46.102Z,25.60
2018-04-19T11:01:12.551Z,25.70
2018-04-19T11:03:38.944Z,25.90
2018-04-19T11:06:05.201Z,26.00
2018-04-19T11:08:31.404Z,26.10
2018-04-19T11:10:57.647Z,26.20
2018-04-19T11:13:24.213Z,26.40
2018-04-19T11:15:51.275Z,26.70
2018-04-19T11:18:18.333Z,26.90
2018-04-19T11:20:45.192Z,26.80
2018-04-19T11:23:11.384Z,27.00
2018-04-19T11:25:38.451Z,27.10
2018-04-19T11:28:04.651Z,27.20
2018-04-19T11:30:31.645Z,27.40
2018-04-19T11:32:58.053Z,27.40
2018-04-19T11:35:24.483Z,27.60
2018-04-19T11:37:50.877Z,27.80
2018-04-19T11:40:17.105Z,28.00
2018-04-19T11:42:43.355Z,28.10
2018-04-19T11:45:09.698Z,28.20
2018-04-19T11:47:36.035Z,28.40
2018-04-19T11:50:02.402Z,28.60
2018-04-19T11:52:28.658Z,28.80
2018-04-19T11:54:56.939Z,28.90
2018-04-19T11:57:23.247Z,29.10
2018-04-19T11:59:49.785Z,29.20
2018-04-19T12:02:16.740Z,29.30
2018-04-19T12:04:43.054Z,29.50
2018-04-19T12:07:10.149Z,29.90
2018-04-19T12:09:41.889Z,30.20
2018-04-19T12:12:08.304Z,30.60
2018-04-19T12:14:34.776Z,31.10
2018-04-19T12:17:04.177Z,31.30
2018-04-19T12:22:32.979Z,31.80
2018-04-19T12:24:59.678Z,31.80
2018-04-19T12:27:28.111Z,31.90
2018-04-19T12:29:54.363Z,32.30
2018-04-19T12:32:20.836Z,32.70
2018-04-19T12:34:47.120Z,33.00
2018-04-19T12:37:13.375Z,32.80
2018-04-19T12:39:39.615Z,33.10
2018-04-19T12:42:06.660Z,33.70
2018-04-19T12:44:33.395Z,33.60
2018-04-19T12:46:59.826Z,33.70
2018-04-19T12:49:26.274Z,33.90
2018-04-19T12:51:53.014Z,33.80
2018-04-19T12:54:19.432Z,33.90
2018-04-19T12:56:45.725Z,34.10
2018-04-19T12:59:12.016Z,34.30
2018-04-19T13:01:40.015Z,34.20
2018-04-19T13:04:11.015Z,34.20
2018-04-19T13:06:37.519Z,34.20
2018-04-19T13:09:03.842Z,34.40
2018-04-19T13:11:30.147Z,34.70
2018-04-19T13:13:56.687Z,35.00
2018-04-19T13:16:22.972Z,34.90
2018-04-19T13:18:49.401Z,35.10
2018-04-19T13:21:16.364Z,35.20
2018-04-19T13:23:43.455Z,35.30
2018-04-19T13:26:10.101Z,35.20
2018-04-19T13:28:36.834Z,35.30
2018-04-19T13:31:03.104Z,35.00
2018-04-19T13:33:29.951Z,35.10
2018-04-19T13:35:56.176Z,34.80
2018-04-19T13:38:23.318Z,34.30
2018-04-19T13:40:50.912Z,34.30
2018-04-19T13:43:17.159Z,34.30
2018-04-19T13:45:45.019Z,33.80
2018-04-19T13:48:11.298Z,33.70
2018-04-19T13:50:37.543Z,33.40
2018-04-19T13:53:03.821Z,33.30
2018-04-19T13:55:30.248Z,33.20
2018-04-19T13:57:56.526Z,32.80
2018-04-19T14:00:23.144Z,32.80
2018-04-19T14:02:49.388Z,33.00
2018-04-19T14:05:15.739Z,32.60
2018-04-19T14:07:42.108Z,32.30
2018-04-19T14:10:10.464Z,32.20
2018-04-19T14:12:37.798Z,31.80
2018-04-19T14:15:05.180Z,32.00
2018-04-19T14:17:31.787Z,32.00
2018-04-19T14:19:59.129Z,31.70
2018-04-19T14:22:26.564Z,31.60
2018-04-19T14:24:54.983Z,31.70
2018-04-19T14:27:31.288Z,31.80
2018-04-19T14:29:58.824Z,31.80
2018-04-19T14:32:25.112Z,31.50
2018-04-19T14:34:51.403Z,31.40
2018-04-19T14:37:19.181Z,31.20
2018-04-19T14:39:46.471Z,31.40
2018-04-19T14:42:12.725Z,31.40
2018-04-19T14:44:39.023Z,31.40
2018-04-19T14:47:05.317Z,31.20
2018-04-19T14:49:31.555Z,31.20
2018-04-19T14:51:57.783Z,31.00
2018-04-19T14:54:24.082Z,31.10
2018-04-19T14:56:50.460Z,31.10
2018-04-19T14:59:17.816Z,30.90
2018-04-19T15:01:44.133Z,30.80
2018-04-19T15:04:10.407Z,30.60
2018-04-19T15:06:36.656Z,30.60
2018-04-19T15:09:03.091Z,30.60
2018-04-19T15:11:29.317Z,30.40
2018-04-19T15:13:55.709Z,30.20
2018-04-19T15:16:22.013Z,30.10
2018-04-19T15:18:48.251Z,30.20
2018-04-19T15:21:14.609Z,30.20
2018-04-19T15:23:41.623Z,30.20
2018-04-19T15:26:07.929Z,30.10
2018-04-19T15:28:34.751Z,30.10
2018-04-19T15:31:01.047Z,30.10
2018-04-19T15:33:29.000Z,30.20
2018-04-19T15:35:57.665Z,30.40
2018-04-19T15:38:30.340Z,30.60
2018-04-19T15:41:01.130Z,30.70
2018-04-19T15:46:32.033Z,30.90
2018-04-19T15:48:58.498Z,30.90
2018-04-19T15:51:31.576Z,30.90
2018-04-19T15:54:27.673Z,31.00
2018-04-19T15:56:54.450Z,31.00
2018-04-19T15:59:22.183Z,31.20
2018-04-19T16:02:00.290Z,31.10
2018-04-19T16:07:28.952Z,30.90
2018-04-19T16:10:06.564Z,31.00
2018-04-19T16:12:37.080Z,30.90
2018-04-19T16:15:08.317Z,30.80
2018-04-19T16:17:35.199Z,30.90
2018-04-19T16:20:01.879Z,30.80
2018-04-19T16:22:28.479Z,30.50
2018-04-19T16:24:55.970Z,30.30
2018-04-19T16:27:24.220Z,30.50
2018-04-19T16:29:51.657Z,30.40
2018-04-19T16:32:17.966Z,30.40
2018-04-19T16:34:44.186Z,30.10
2018-04-19T16:37:10.414Z,30.20
2018-04-19T16:39:36.620Z,30.30
2018-04-19T16:42:03.003Z,30.60
2018-04-19T16:44:29.252Z,30.50
2018-04-19T16:46:55.721Z,30.60
2018-04-19T16:49:21.962Z,30.30
2018-04-19T16:51:49.173Z,30.00
2018-04-19T16:54:15.518Z,29.90
2018-04-19T16:56:42.096Z,29.90
2018-04-19T16:59:09.493Z,29.90
2018-04-19T17:01:35.666Z,29.70
2018-04-19T17:04:02.421Z,29.20
2018-04-19T17:06:28.699Z,29.10
2018-04-19T17:08:54.935Z,29.10
2018-04-19T17:11:22.256Z,28.90
2018-04-19T17:13:49.275Z,28.90
2018-04-19T17:16:15.527Z,28.80
2018-04-19T17:18:41.755Z,28.70
2018-04-19T17:21:08.924Z,28.70
2018-04-19T17:23:35.139Z,28.60
2018-04-19T17:26:01.391Z,28.40
2018-04-19T17:28:27.638Z,28.30
2018-04-19T17:30:53.901Z,28.30
2018-04-19T17:33:20.252Z,28.10
2018-04-19T17:35:47.315Z,28.00
2018-04-19T17:38:13.629Z,27.90
2018-04-19T17:40:40.689Z,27.70
2018-04-19T17:43:06.990Z,27.60
2018-04-19T17:45:33.469Z,27.50
2018-04-19T17:47:59.857Z,27.40
2018-04-19T17:50:26.118Z,27.10
2018-04-19T17:55:24.384Z,26.80
2018-04-19T17:57:50.790Z,26.50
2018-04-19T18:00:17.169Z,26.30
2018-04-19T18:02:43.412Z,26.10
2018-04-19T18:05:09.781Z,25.80
2018-04-19T18:07:36.008Z,25.60
2018-04-19T18:10:02.380Z,25.40
2018-04-19T18:12:29.374Z,25.10
2018-04-19T18:14:55.704Z,25.00
2018-04-19T18:17:21.944Z,24.80
2018-04-19T18:19:48.145Z,24.70
2018-04-19T18:22:14.407Z,24.30
2018-04-19T18:24:40.730Z,24.20
2018-04-19T18:27:07.017Z,24.00
2018-04-19T18:29:33.250Z,23.80
2018-04-19T18:31:59.684Z,23.60
2018-04-19T18:34:26.667Z,23.40
2018-04-19T18:36:52.988Z,23.30
2018-04-19T18:39:19.251Z,23.20
2018-04-19T18:41:45.498Z,23.00
2018-04-19T18:44:11.795Z,22.90
2018-04-19T18:46:38.153Z,22.70
2018-04-19T18:49:05.309Z,22.40
2018-04-19T18:51:32.271Z,22.40
2018-04-19T18:53:58.892Z,22.30
2018-04-19T18:56:25.286Z,22.10
2018-04-19T18:58:51.612Z,21.80
2018-04-19T19:01:17.885Z,21.70
2018-04-19T19:03:44.088Z,21.60
2018-04-19T19:06:10.458Z,21.50
2018-04-19T19:08:36.895Z,21.30
2018-04-19T19:11:03.922Z,21.20
2018-04-19T19:13:30.289Z,21.10
2018-04-19T19:16:12.170Z,20.90
2018-04-19T19:18:50.592Z,20.90
2018-04-19T19:21:16.834Z,20.80
2018-04-19T19:23:43.276Z,20.70
2018-04-19T19:26:09.497Z,20.60
2018-04-19T19:28:35.741Z,20.50
2018-04-19T19:31:02.184Z,20.40
2018-04-19T19:33:28.565Z,20.30
2018-04-19T19:35:54.831Z,20.10
2018-04-19T19:38:21.173Z,20.00
2018-04-19T19:40:48.249Z,19.90
2018-04-19T19:43:14.525Z,19.90
2018-04-19T19:45:40.729Z,19.80
2018-04-19T19:48:08.700Z,19.50
2018-04-19T19:50:34.928Z,19.50
2018-04-19T19:53:01.263Z,19.40
2018-04-19T19:55:28.371Z,19.20
2018-04-19T19:57:54.759Z,19.20
2018-04-19T20:00:21.192Z,19.10
2018-04-19T20:02:47.458Z,19.00
2018-04-19T20:05:13.678Z,19.10
2018-04-19T20:07:39.871Z,19.00
2018-04-19T20:10:07.867Z,18.90
2018-04-19T20:12:34.184Z,18.90
2018-04-19T20:15:01.377Z,18.70
2018-04-19T20:17:27.652Z,18.60
2018-04-19T20:19:53.892Z,18.50
2018-04-19T20:22:20.150Z,18.50
2018-04-19T20:24:46.579Z,18.40
2018-04-19T20:27:12.908Z,18.30
2018-04-19T20:29:39.477Z,18.20
2018-04-19T20:32:05.808Z,18.20
2018-04-19T20:34:32.996Z,18.10
2018-04-19T20:36:59.809Z,18.00
2018-04-19T20:39:26.074Z,17.90
2018-04-19T20:41:53.376Z,17.80
2018-04-19T20:44:19.670Z,17.70
2018-04-19T20:46:46.859Z,17.80
2018-04-19T20:49:13.175Z,17.60
2018-04-19T20:51:40.445Z,17.60
2018-04-19T20:54:06.841Z,17.50
2018-04-19T20:56:35.484Z,17.40
2018-04-19T20:59:01.821Z,17.40
2018-04-19T21:01:28.119Z,17.30
2018-04-19T21:03:54.380Z,17.20
2018-04-19T21:06:21.999Z,17.10
2018-04-19T21:08:48.331Z,17.10
2018-04-19T21:11:14.672Z,16.90
2018-04-19T21:13:40.929Z,16.80
2018-04-19T21:16:07.303Z,16.80
2018-04-19T21:18:33.600Z,16.80
2018-04-19T21:21:01.905Z,16.70
2018-04-19T21:23:28.240Z,16.60
2018-04-19T21:25:54.516Z,16.60
2018-04-19T21:28:20.772Z,16.60
2018-04-19T21:30:47.131Z,16.50
2018-04-19T21:33:13.521Z,16.40
2018-04-19T21:35:39.960Z,16.40
2018-04-19T21:38:06.223Z,16.40
2018-04-19T21:40:32.463Z,16.40
2018-04-19T21:42:59.754Z,16.30
2018-04-19T21:45:26.024Z,16.30
2018-04-19T21:47:52.259Z,16.20
2018-04-19T21:50:18.727Z,16.10
2018-04-19T21:52:45.402Z,16.10
2018-04-19T21:55:12.091Z,16.00
2018-04-19T21:57:39.398Z,16.00
2018-04-19T22:00:05.696Z,15.90
2018-04-19T22:02:31.953Z,15.90
2018-04-19T22:04:58.382Z,15.80
2018-04-19T22:07:24.791Z,15.80
2018-04-19T22:09:51.088Z,15.70
2018-04-19T22:12:17.439Z,15.70
2018-04-19T22:14:44.549Z,15.60
2018-04-19T22:17:10.862Z,15.60
2018-04-19T22:19:37.155Z,15.60
2018-04-19T22:22:03.582Z,15.60
2018-04-19T22:24:29.852Z,15.50
2018-04-19T22:26:56.828Z,15.40
2018-04-19T22:29:23.170Z,15.40
2018-04-19T22:31:49.421Z,15.20
2018-04-19T22:34:15.618Z,15.20
2018-04-19T22:36:41.914Z,15.20
2018-04-19T22:39:09.956Z,15.20
2018-04-19T22:41:38.088Z,15.10
2018-04-19T22:44:04.368Z,15.10
2018-04-19T22:46:30.927Z,15.10
2018-04-19T22:48:57.609Z,15.10
2018-04-19T22:51:23.899Z,15.10
2018-04-19T22:53:50.194Z,15.00
2018-04-19T22:56:17.207Z,15.00
2018-04-19T22:58:43.464Z,15.00
2018-04-19T23:01:09.725Z,15.00
2018-04-19T23:03:35.948Z,15.00
2018-04-19T23:06:02.162Z,15.00
2018-04-19T23:08:28.423Z,14.90
2018-04-19T23:10:54.729Z,14.90
2018-04-19T23:13:20.991Z,14.90
2018-04-19T23:15:47.572Z,14.90
2018-04-19T23:18:14.116Z,14.90
2018-04-19T23:20:40.719Z,14.90
2018-04-19T23:23:07.260Z,14.90
2018-04-19T23:25:33.508Z,14.80
2018-04-19T23:27:59.815Z,14.80
2018-04-19T23:30:26.003Z,14.80
2018-04-19T23:32:53.253Z,14.80
2018-04-19T23:35:19.623Z,14.80
2018-04-19T23:37:45.899Z,14.70
2018-04-19T23:40:12.120Z,14.70
2018-04-19T23:42:38.383Z,14.70
2018-04-19T23:45:04.769Z,14.60
2018-04-19T23:47:31.060Z,14.60
2018-04-19T23:49:57.290Z,14.60
2018-04-19T23:52:23.611Z,14.60
2018-04-19T23:54:49.920Z,14.60
2018-04-19T23:57:16.900Z,14.50
2018-04-19T23:59:43.127Z,14.50
